Time;durP1;ratioP1;P1;durP2;ratioP2;P2;SDS_P1;SDS_P2;PMS_P1;PMS_P2;Temp;Humidity;BMP_temperature;BMP_pressure;BME280_temperature;BME280_humidity;BME280_pressure;Samples;Min_cycle;Max_cycle;Signal;HPM_P1;HPM_P2
2023/01/13 00:01:25;;;;;;;13.20;9.38;;;8.90;99.90;;;;;;5053076;28;20043;-72
2023/01/13 00:03:53;;;;;;;20.77;7.80;;;8.90;99.90;;;;;;5061142;28;20041;-73
2023/01/13 00:06:26;;;;;;;14.10;8.93;;;8.90;99.90;;;;;;5036102;28;20036;-72
2023/01/13 00:08:54;;;;;;;11.32;7.70;;;8.80;99.90;;;;;;5063760;28;20461;-73
2023/01/13 00:11:22;;;;;;;13.55;8.75;;;8.80;99.90;;;;;;5052280;28;20410;-72
2023/01/13 00:13:49;;;;;;;11.15;7.93;;;8.80;99.90;;;;;;5065180;28;20044;-72
2023/01/13 00:16:18;;;;;;;12.63;8.30;;;8.80;99.90;;;;;;5070546;28;20057;-72
2023/01/13 00:18:46;;;;;;;13.98;7.32;;;8.80;99.90;;;;;;5068916;28;20047;-72
2023/01/13 00:21:17;;;;;;;10.05;6.47;;;8.80;99.90;;;;;;5069660;28;20502;-72
2023/01/13 00:23:46;;;;;;;11.88;7.72;;;8.70;99.90;;;;;;5057803;28;20159;-72
2023/01/13 00:26:22;;;;;;;12.25;8.07;;;8.80;99.90;;;;;;5069417;28;20454;-72
2023/01/13 00:28:54;;;;;;;10.27;6.95;;;8.70;99.90;;;;;;5068258;28;20109;-72
2023/01/13 00:31:22;;;;;;;11.75;8.48;;;8.70;99.90;;;;;;5068229;28;20052;-72
2023/01/13 00:33:50;;;;;;;10.82;7.05;;;8.70;99.90;;;;;;5068687;28;20457;-72
2023/01/13 00:36:19;;;;;;;16.05;8.65;;;8.80;99.90;;;;;;5068511;28;20044;-73
2023/01/13 00:38:47;;;;;;;21.92;8.93;;;8.80;99.90;;;;;;5069051;28;20045;-73
2023/01/13 00:41:17;;;;;;;12.07;6.93;;;8.80;99.90;;;;;;5052099;28;20055;-73
2023/01/13 00:43:45;;;;;;;11.23;7.13;;;8.80;99.90;;;;;;5067836;28;20052;-72
2023/01/13 00:46:15;;;;;;;11.77;7.05;;;8.80;99.90;;;;;;5069838;28;20039;-72
2023/01/13 00:48:43;;;;;;;11.60;6.00;;;8.70;99.90;;;;;;5059247;28;20058;-72
2023/01/13 00:51:14;;;;;;;8.15;5.00;;;8.70;99.90;;;;;;5067776;28;20164;-73
2023/01/13 00:53:45;;;;;;;8.48;5.90;;;8.70;99.90;;;;;;5068103;28;20075;-72
2023/01/13 00:56:16;;;;;;;16.58;7.85;;;8.70;99.90;;;;;;5069226;28;20064;-72
2023/01/13 00:58:48;;;;;;;11.40;5.88;;;8.60;99.90;;;;;;5066063;28;20045;-72
2023/01/13 01:01:18;;;;;;;11.07;5.90;;;8.60;99.90;;;;;;5068327;28;20495;-72
2023/01/13 01:03:51;;;;;;;10.82;5.57;;;8.70;99.90;;;;;;5056096;28;20036;-72
2023/01/13 01:06:24;;;;;;;8.07;5.95;;;8.70;99.90;;;;;;5058374;28;20037;-72
2023/01/13 01:08:53;;;;;;;10.43;6.03;;;8.70;99.90;;;;;;5067753;28;20055;-72
2023/01/13 01:11:23;;;;;;;14.27;5.43;;;8.70;99.90;;;;;;5067640;28;20123;-72
2023/01/13 01:13:55;;;;;;;7.38;4.78;;;8.70;99.90;;;;;;5063946;28;20055;-73
2023/01/13 01:16:25;;;;;;;12.13;6.88;;;8.80;99.90;;;;;;5067744;28;21355;-72
2023/01/13 01:18:54;;;;;;;12.95;7.57;;;8.80;99.90;;;;;;5068053;28;20036;-72
2023/01/13 01:21:23;;;;;;;12.65;8.45;;;8.80;99.90;;;;;;5070366;28;20376;-73
2023/01/13 01:23:51;;;;;;;11.98;8.13;;;8.80;99.90;;;;;;5070570;28;20048;-72
2023/01/13 01:26:22;;;;;;;12.88;7.00;;;8.80;99.90;;;;;;5068546;28;20044;-72
2023/01/13 01:28:50;;;;;;;12.25;7.47;;;8.80;99.90;;;;;;5070633;28;20072;-72
2023/01/13 01:31:26;;;;;;;11.70;7.05;;;8.80;99.90;;;;;;5070177;28;20044;-73
2023/01/13 01:33:54;;;;;;;11.00;5.88;;;8.80;99.90;;;;;;5069187;28;20064;-73
2023/01/13 01:36:28;;;;;;;9.95;6.65;;;8.80;99.90;;;;;;5070278;28;20490;-73
2023/01/13 01:38:58;;;;;;;13.88;6.82;;;8.80;99.90;;;;;;5070178;28;20040;-73
2023/01/13 01:41:28;;;;;;;8.95;5.95;;;8.80;99.90;;;;;;5032425;28;20059;-73
2023/01/13 01:44:27;;;;;;;8.80;7.05;;;8.80;99.90;;;;;;5062396;28;20370;-73
2023/01/13 01:46:56;;;;;;;11.15;7.47;;;8.70;99.90;;;;;;5052371;28;20482;-73
2023/01/13 01:49:31;;;;;;;12.75;6.97;;;8.70;99.90;;;;;;5068528;28;20046;-73
2023/01/13 01:52:01;;;;;;;10.27;7.38;;;8.60;99.90;;;;;;5068212;28;20450;-73
2023/01/13 01:54:59;;;;;;;13.23;8.13;;;8.60;99.90;;;;;;5052224;28;20051;-73
2023/01/13 01:57:33;;;;;;;9.77;6.97;;;8.60;99.90;;;;;;5035211;28;20040;-73
2023/01/13 02:00:01;;;;;;;13.75;8.68;;;8.50;99.90;;;;;;5035347;28;20068;-72
2023/01/13 02:02:39;;;;;;;18.60;10.02;;;8.50;99.90;;;;;;5070313;28;20052;-73
2023/01/13 02:05:06;;;;;;;12.80;8.32;;;8.40;99.90;;;;;;5068616;28;20163;-73
2023/01/13 02:07:37;;;;;;;11.93;6.95;;;8.50;99.90;;;;;;5069542;28;20457;-73
2023/01/13 02:10:08;;;;;;;9.20;6.18;;;8.40;99.90;;;;;;5068150;28;20055;-73
2023/01/13 02:12:37;;;;;;;10.55;5.65;;;8.40;99.90;;;;;;5070063;28;20076;-73
2023/01/13 02:15:06;;;;;;;9.73;5.18;;;8.40;99.90;;;;;;5070061;28;20055;-74
2023/01/13 02:18:10;;;;;;;8.45;5.75;;;8.40;99.90;;;;;;5068233;28;20052;-73
2023/01/13 02:20:47;;;;;;;13.00;6.25;;;8.50;99.90;;;;;;5069762;28;20048;-73
2023/01/13 02:26:39;;;;;;;10.52;5.57;;;8.50;99.90;;;;;;5068468;28;20040;-73
2023/01/13 02:32:33;;;;;;;7.43;4.75;;;8.40;99.90;;;;;;5069344;28;20111;-73
2023/01/13 02:35:06;;;;;;;6.20;4.22;;;8.50;99.90;;;;;;5068614;28;20048;-73
2023/01/13 02:37:38;;;;;;;6.80;4.25;;;8.50;99.90;;;;;;5069579;28;20056;-73
2023/01/13 02:40:26;;;;;;;11.15;5.78;;;8.50;99.90;;;;;;5069800;28;20036;-73
2023/01/13 02:46:31;;;;;;;7.43;5.18;;;8.40;99.90;;;;;;5068274;28;20064;-73
2023/01/13 02:49:05;;;;;;;7.60;4.20;;;8.50;99.90;;;;;;5027099;28;20057;-73
2023/01/13 02:51:34;;;;;;;8.20;4.20;;;8.50;99.90;;;;;;5066697;28;20037;-73
2023/01/13 02:54:20;;;;;;;6.57;3.40;;;8.50;99.90;;;;;;5068204;28;20052;-73
2023/01/13 02:56:52;;;;;;;8.43;4.47;;;8.60;99.90;;;;;;5069514;28;20045;-73
2023/01/13 02:59:24;;;;;;;6.90;4.63;;;8.50;99.90;;;;;;5067674;28;20051;-73
2023/01/13 03:01:55;;;;;;;7.57;4.93;;;8.60;99.90;;;;;;5048011;28;20049;-73
2023/01/13 03:05:01;;;;;;;7.95;4.30;;;8.60;99.90;;;;;;5051581;28;20048;-73
2023/01/13 03:08:07;;;;;;;7.55;3.75;;;8.50;99.90;;;;;;5063701;28;20195;-74
2023/01/13 03:11:05;;;;;;;7.43;4.15;;;8.60;99.90;;;;;;5053558;28;20048;-73
2023/01/13 03:13:41;;;;;;;8.40;4.70;;;8.50;99.90;;;;;;5051249;28;20049;-73
2023/01/13 03:16:47;;;;;;;9.13;4.68;;;8.60;99.90;;;;;;5052783;28;20052;-73
2023/01/13 03:19:29;;;;;;;8.35;5.78;;;8.50;99.90;;;;;;5072503;28;20517;-73
2023/01/13 03:22:11;;;;;;;7.80;5.35;;;8.50;99.90;;;;;;5052136;28;20055;-73
2023/01/13 03:24:43;;;;;;;10.32;6.15;;;8.50;99.90;;;;;;5052064;28;20045;-73
2023/01/13 03:27:24;;;;;;;9.52;4.65;;;8.40;99.90;;;;;;5060175;28;20032;-72
2023/01/13 03:30:17;;;;;;;11.45;5.97;;;8.40;99.90;;;;;;5072619;28;20399;-73
2023/01/13 03:32:52;;;;;;;14.73;6.53;;;8.40;99.90;;;;;;5055264;28;20068;-73
2023/01/13 03:35:29;;;;;;;5.82;3.90;;;8.30;99.90;;;;;;5071048;28;20102;-73
2023/01/13 03:38:20;;;;;;;9.75;5.35;;;8.30;99.90;;;;;;5071253;28;20058;-73
2023/01/13 03:40:55;;;;;;;7.63;4.78;;;8.20;99.90;;;;;;5071001;28;20098;-73
2023/01/13 03:46:49;;;;;;;5.95;4.53;;;8.10;99.90;;;;;;5071794;28;20041;-73
2023/01/13 03:49:21;;;;;;;6.38;3.90;;;8.10;99.90;;;;;;5054810;28;20137;-73
2023/01/13 03:51:54;;;;;;;5.75;3.45;;;8.00;99.90;;;;;;5071393;28;20060;-73
2023/01/13 03:54:27;;;;;;;5.20;3.30;;;7.90;99.90;;;;;;5071249;28;20052;-73
2023/01/13 03:56:59;;;;;;;7.00;3.72;;;7.90;99.90;;;;;;5072251;28;20037;-73
2023/01/13 03:59:33;;;;;;;6.70;3.72;;;7.90;99.90;;;;;;5070840;28;20052;-73
2023/01/13 04:02:02;;;;;;;7.05;3.05;;;7.90;99.90;;;;;;5051231;28;20057;-73
2023/01/13 04:04:59;;;;;;;5.57;3.58;;;7.80;99.90;;;;;;5052053;28;20429;-73
2023/01/13 04:07:38;;;;;;;7.03;4.55;;;7.90;99.90;;;;;;5060396;28;20048;-73
2023/01/13 04:10:09;;;;;;;5.45;3.50;;;8.00;99.90;;;;;;5070982;28;20044;-73
2023/01/13 04:13:01;;;;;;;5.70;3.90;;;8.00;99.90;;;;;;5052116;28;20114;-73
2023/01/13 04:15:36;;;;;;;6.25;3.53;;;8.10;99.90;;;;;;5016878;28;20392;-73
2023/01/13 04:18:21;;;;;;;6.60;3.50;;;8.20;99.90;;;;;;5065652;28;20064;-73
2023/01/13 04:20:51;;;;;;;6.45;3.95;;;8.20;99.90;;;;;;5071905;28;20045;-73
2023/01/13 04:23:20;;;;;;;14.00;4.13;;;8.20;99.90;;;;;;5071394;28;20124;-73
2023/01/13 04:25:49;;;;;;;5.65;3.90;;;8.20;99.90;;;;;;5070644;28;20494;-73
2023/01/13 04:28:17;;;;;;;4.95;3.38;;;8.20;99.90;;;;;;5070411;28;20049;-73
2023/01/13 04:30:46;;;;;;;8.13;4.05;;;8.30;99.90;;;;;;5071529;28;20063;-73
2023/01/13 04:33:15;;;;;;;5.72;3.53;;;8.30;99.90;;;;;;5070155;28;20427;-73
2023/01/13 04:35:44;;;;;;;6.78;3.55;;;8.30;99.90;;;;;;5070080;28;20040;-73
2023/01/13 04:38:13;;;;;;;7.10;3.72;;;8.30;99.90;;;;;;5070259;28;20171;-73
2023/01/13 04:40:41;;;;;;;6.03;3.42;;;8.40;99.90;;;;;;5070376;28;20048;-73
2023/01/13 04:43:09;;;;;;;6.53;3.88;;;8.40;99.90;;;;;;5070107;28;20068;-73
2023/01/13 04:45:37;;;;;;;6.55;4.20;;;8.40;99.90;;;;;;5071273;28;20052;-73
2023/01/13 04:48:05;;;;;;;12.95;5.10;;;8.40;99.90;;;;;;5071278;28;20213;-73
2023/01/13 04:50:33;;;;;;;7.70;4.18;;;8.40;99.90;;;;;;5071282;28;20043;-74
2023/01/13 04:53:00;;;;;;;4.78;3.25;;;8.50;99.90;;;;;;5069757;28;20102;-73
2023/01/13 04:55:28;;;;;;;6.88;3.75;;;8.50;99.90;;;;;;5070830;28;20055;-73
2023/01/13 04:58:04;;;;;;;8.18;4.22;;;8.50;99.90;;;;;;5053263;28;20064;-73
2023/01/13 05:00:32;;;;;;;9.98;4.40;;;8.50;99.90;;;;;;5071012;28;20044;-73
2023/01/13 05:02:59;;;;;;;6.80;3.85;;;8.50;99.90;;;;;;5070617;28;20509;-73
2023/01/13 05:05:28;;;;;;;7.05;4.40;;;8.50;99.90;;;;;;5052216;28;20495;-73
2023/01/13 05:07:56;;;;;;;6.38;4.30;;;8.50;99.90;;;;;;5070623;28;20127;-73
2023/01/13 05:10:24;;;;;;;6.68;4.45;;;8.40;99.90;;;;;;5070826;28;20435;-73
2023/01/13 05:18:30;;;;;;;9.35;4.25;;;8.30;99.90;;;;;;5069182;28;20127;-73
2023/01/13 05:20:57;;;;;;;5.43;3.47;;;8.30;99.90;;;;;;5069358;28;20081;-73
2023/01/13 05:26:11;;;;;;;7.68;4.50;;;8.30;99.90;;;;;;5068500;28;20473;-73
2023/01/13 05:28:38;;;;;;;6.30;4.28;;;8.20;99.90;;;;;;5068588;28;20045;-73
2023/01/13 05:31:05;;;;;;;6.88;4.40;;;8.20;99.90;;;;;;5070260;28;20051;-73
2023/01/13 05:33:33;;;;;;;7.00;4.20;;;8.10;99.90;;;;;;5070044;28;20079;-73
2023/01/13 05:36:03;;;;;;;5.82;4.22;;;8.10;99.90;;;;;;5052711;28;20045;-73
2023/01/13 05:38:30;;;;;;;14.93;3.92;;;8.10;99.90;;;;;;5068392;28;20051;-73
2023/01/13 05:43:45;;;;;;;8.98;5.07;;;8.00;99.90;;;;;;5068838;28;20135;-73
2023/01/13 05:46:13;;;;;;;8.35;4.00;;;8.00;99.90;;;;;;5052297;28;20131;-73
2023/01/13 05:48:42;;;;;;;6.57;3.35;;;8.00;99.90;;;;;;5063166;28;20124;-74
2023/01/13 05:51:11;;;;;;;5.32;3.10;;;8.00;99.90;;;;;;5065135;28;20044;-73
2023/01/13 05:53:39;;;;;;;8.48;3.65;;;8.00;99.90;;;;;;5054425;28;20402;-73
2023/01/13 05:56:08;;;;;;;6.47;3.55;;;8.00;99.90;;;;;;5068715;28;20036;-73
2023/01/13 05:58:35;;;;;;;6.65;3.67;;;8.00;99.90;;;;;;5068605;28;20052;-73
2023/01/13 06:01:06;;;;;;;6.63;3.58;;;8.00;99.90;;;;;;5068562;28;20045;-73
2023/01/13 06:03:34;;;;;;;6.45;3.58;;;8.00;99.90;;;;;;5068566;28;20411;-73
2023/01/13 06:06:02;;;;;;;6.40;3.42;;;8.00;99.90;;;;;;5070240;28;20045;-73
2023/01/13 06:08:31;;;;;;;7.68;3.22;;;8.00;99.90;;;;;;5069994;28;20066;-72
2023/01/13 06:10:59;;;;;;;5.30;4.20;;;8.00;99.90;;;;;;5069973;28;20502;-73
2023/01/13 06:13:26;;;;;;;5.72;3.50;;;8.10;99.90;;;;;;5069789;28;20117;-73
2023/01/13 06:15:57;;;;;;;5.13;3.92;;;8.10;99.90;;;;;;5068360;28;20063;-73
2023/01/13 06:18:26;;;;;;;4.80;3.10;;;8.10;99.90;;;;;;5068784;28;20049;-73
2023/01/13 06:20:54;;;;;;;7.65;3.70;;;8.20;99.90;;;;;;5068710;28;20458;-73
2023/01/13 06:23:22;;;;;;;7.00;4.38;;;8.20;99.90;;;;;;5069597;28;20048;-73
2023/01/13 06:26:08;;;;;;;7.97;4.78;;;8.40;99.90;;;;;;5068193;28;20044;-73
2023/01/13 06:28:35;;;;;;;10.27;6.00;;;8.70;99.90;;;;;;5069979;28;20048;-73
2023/01/13 06:31:06;;;;;;;10.15;5.75;;;9.10;99.90;;;;;;5069989;28;20526;-73
2023/01/13 06:33:44;;;;;;;13.70;6.90;;;9.50;99.90;;;;;;5068754;28;20055;-73
2023/01/13 06:36:21;;;;;;;11.25;6.30;;;9.80;99.90;;;;;;5048313;28;20495;-73
2023/01/13 06:38:52;;;;;;;7.28;5.40;;;10.20;99.90;;;;;;5070639;28;20048;-73
2023/01/13 06:43:13;;;;;;;6.78;3.83;;;10.50;99.90;;;;;;5055945;28;20360;-73
2023/01/13 06:44:08;;;;;;;4.72;2.85;;;11.00;99.90;;;;;;5072294;28;20051;-73
2023/01/13 06:46:36;;;;;;;6.15;2.97;;;11.50;99.90;;;;;;5056213;28;20127;-73
2023/01/13 06:49:04;;;;;;;4.38;2.85;;;11.70;99.90;;;;;;5053421;28;20056;-73
2023/01/13 06:51:32;;;;;;;4.45;2.85;;;11.90;99.90;;;;;;5053171;28;20049;-73
2023/01/13 06:53:59;;;;;;;5.03;2.80;;;12.50;99.90;;;;;;5055678;28;20072;-73
2023/01/13 06:56:27;;;;;;;5.25;3.10;;;13.00;99.90;;;;;;5073437;28;20040;-72
2023/01/13 06:58:54;;;;;;;4.55;2.90;;;13.90;99.90;;;;;;5071783;28;20502;-73
2023/01/13 07:01:22;;;;;;;3.97;2.35;;;14.40;99.90;;;;;;5071269;28;20071;-73
2023/01/13 07:03:49;;;;;;;4.65;2.90;;;15.20;99.90;;;;;;5073071;28;20119;-73
2023/01/13 07:06:17;;;;;;;4.35;2.67;;;15.90;99.90;;;;;;5073066;28;20040;-73
2023/01/13 07:08:44;;;;;;;5.90;3.28;;;16.20;99.90;;;;;;5071976;28;20446;-73
2023/01/13 07:11:12;;;;;;;5.38;2.15;;;16.70;99.90;;;;;;5073210;28;20131;-73
2023/01/13 07:16:26;;;;;;;3.78;2.47;;;18.00;99.90;;;;;;5052922;28;20049;-72
2023/01/13 07:18:54;;;;;;;4.43;2.60;;;18.60;99.90;;;;;;5071266;28;20091;-73
2023/01/13 07:21:22;;;;;;;3.53;2.45;;;19.10;99.90;;;;;;5072728;28;20089;-72
2023/01/13 07:23:49;;;;;;;5.40;3.25;;;19.60;99.90;;;;;;5072794;28;20044;-72
2023/01/13 07:26:17;;;;;;;6.68;3.20;;;20.10;99.90;;;;;;5069307;28;20041;-73
2023/01/13 07:28:45;;;;;;;5.50;3.08;;;20.70;99.10;;;;;;5072558;28;20135;-72
2023/01/13 07:31:15;;;;;;;5.35;3.35;;;21.30;98.50;;;;;;5071012;28;20566;-73
2023/01/13 07:33:43;;;;;;;5.03;2.40;;;21.80;97.60;;;;;;5072953;28;20040;-72
2023/01/13 07:36:11;;;;;;;5.00;2.67;;;22.20;97.00;;;;;;5071527;28;20435;-72
2023/01/13 07:38:38;;;;;;;4.07;2.67;;;22.20;96.40;;;;;;5070667;28;20127;-73
2023/01/13 07:43:52;;;;;;;4.68;3.10;;;21.90;96.20;;;;;;5054536;28;20059;-72
2023/01/13 07:46:19;;;;;;;5.55;3.67;;;21.80;96.50;;;;;;5072258;28;20407;-73
2023/01/13 07:48:47;;;;;;;6.40;4.30;;;21.60;96.70;;;;;;5072012;28;20090;-73
2023/01/13 07:51:15;;;;;;;9.00;4.95;;;21.40;96.50;;;;;;5072116;28;20048;-73
2023/01/13 07:53:42;;;;;;;8.45;4.68;;;20.90;96.50;;;;;;5071220;28;20082;-73
2023/01/13 07:56:10;;;;;;;7.78;4.70;;;20.20;97.30;;;;;;5072134;28;20052;-73
2023/01/13 07:58:38;;;;;;;8.32;4.57;;;19.60;97.70;;;;;;5070744;28;20075;-73
2023/01/13 08:01:10;;;;;;;9.68;6.53;;;18.90;98.50;;;;;;5072305;28;20542;-73
2023/01/13 08:03:39;;;;;;;9.45;6.22;;;18.50;99.40;;;;;;5072103;28;20048;-72
2023/01/13 08:06:08;;;;;;;8.25;5.68;;;18.30;99.80;;;;;;5054008;28;20051;-73
2023/01/13 08:08:37;;;;;;;9.38;5.30;;;18.00;99.90;;;;;;5070807;28;20044;-72
2023/01/13 08:11:06;;;;;;;14.00;7.60;;;17.60;99.90;;;;;;5070757;28;20440;-73
2023/01/13 08:13:34;;;;;;;7.78;5.45;;;17.10;99.90;;;;;;5071734;28;20060;-73
2023/01/13 08:16:07;;;;;;;12.95;6.55;;;16.50;99.90;;;;;;5037820;28;20057;-73
2023/01/13 08:18:36;;;;;;;31.40;21.35;;;15.90;99.90;;;;;;5070707;28;20109;-72
2023/01/13 08:21:06;;;;;;;34.20;24.83;;;15.20;99.90;;;;;;5070540;28;20215;-73
2023/01/13 08:23:34;;;;;;;33.88;22.30;;;14.70;99.90;;;;;;5070196;28;20129;-72
2023/01/13 08:26:04;;;;;;;17.73;11.40;;;14.30;99.90;;;;;;5071916;28;20467;-73
2023/01/13 08:28:32;;;;;;;9.73;6.30;;;14.00;99.90;;;;;;5072039;28;20056;-73
2023/01/13 08:31:01;;;;;;;8.95;6.07;;;13.70;99.90;;;;;;5070509;28;20517;-73
2023/01/13 08:33:30;;;;;;;11.48;5.90;;;13.40;99.90;;;;;;5071416;28;20045;-73
2023/01/13 08:36:01;;;;;;;11.40;6.88;;;13.20;99.90;;;;;;5071470;28;20037;-74
2023/01/13 08:38:28;;;;;;;10.48;6.22;;;13.00;99.90;;;;;;5071432;28;20465;-73
2023/01/13 08:40:56;;;;;;;9.02;6.00;;;13.00;99.90;;;;;;5070308;28;20394;-74
2023/01/13 08:43:24;;;;;;;11.50;6.90;;;12.90;99.90;;;;;;5071337;28;20043;-72
2023/01/13 08:46:00;;;;;;;7.75;5.57;;;12.80;99.90;;;;;;5071160;28;20498;-72
2023/01/13 08:48:28;;;;;;;9.35;5.82;;;12.70;99.90;;;;;;5071300;28;20401;-72
2023/01/13 08:51:08;;;;;;;8.35;5.82;;;12.60;99.90;;;;;;5069880;28;20063;-73
2023/01/13 08:53:35;;;;;;;8.43;5.47;;;12.50;99.90;;;;;;5071079;28;20131;-72
2023/01/13 08:56:10;;;;;;;7.82;5.22;;;12.60;99.90;;;;;;5069624;28;20043;-72
2023/01/13 08:58:39;;;;;;;10.43;6.40;;;12.60;99.90;;;;;;5069278;28;20432;-72
2023/01/13 09:01:08;;;;;;;9.13;6.63;;;12.70;99.90;;;;;;5069835;28;20371;-73
2023/01/13 09:03:37;;;;;;;9.27;5.70;;;13.00;99.90;;;;;;5070065;28;20044;-72
2023/01/13 09:06:05;;;;;;;7.95;5.57;;;13.40;99.90;;;;;;5069359;28;20044;-73
2023/01/13 09:08:33;;;;;;;9.93;5.25;;;13.70;99.90;;;;;;5070719;28;20090;-73
2023/01/13 09:13:10;;;;;;;8.30;4.63;;;14.10;99.90;;;;;;5069537;28;20043;-72
2023/01/13 09:13:48;;;;;;;10.90;5.75;;;14.50;99.90;;;;;;5070193;28;20044;-72
2023/01/13 09:16:15;;;;;;;9.23;5.13;;;14.80;99.90;;;;;;5070247;28;20048;-72
2023/01/13 09:18:43;;;;;;;8.27;4.80;;;15.10;99.90;;;;;;5069173;28;20044;-74
2023/01/13 09:21:11;;;;;;;8.68;6.22;;;15.50;99.90;;;;;;5052244;28;20044;-72
2023/01/13 09:23:38;;;;;;;11.15;5.35;;;15.80;99.90;;;;;;5068575;28;20047;-72
2023/01/13 09:26:08;;;;;;;7.78;5.57;;;16.00;99.90;;;;;;5068297;28;20426;-72
2023/01/13 09:28:35;;;;;;;7.38;5.45;;;16.20;99.90;;;;;;5068027;28;20072;-72
2023/01/13 09:31:03;;;;;;;7.63;4.88;;;16.30;99.90;;;;;;5051984;28;20055;-73
2023/01/13 09:36:18;;;;;;;7.25;5.00;;;16.60;99.90;;;;;;5070165;28;20059;-73
2023/01/13 09:38:47;;;;;;;8.45;5.15;;;16.80;99.90;;;;;;5068964;28;20510;-73
2023/01/13 09:44:31;;;;;;;8.93;5.53;;;17.20;99.90;;;;;;5068975;28;20392;-72
2023/01/13 09:47:05;;;;;;;7.30;5.30;;;17.00;99.90;;;;;;5038857;28;20508;-72
2023/01/13 09:49:38;;;;;;;8.52;5.20;;;16.80;99.90;;;;;;5035324;28;20109;-72
2023/01/13 09:52:20;;;;;;;8.18;4.55;;;16.90;99.90;;;;;;5070138;28;20131;-72
2023/01/13 09:55:04;;;;;;;7.57;4.90;;;17.20;99.90;;;;;;5069977;28;20123;-72
2023/01/13 09:57:36;;;;;;;6.43;3.78;;;17.30;99.90;;;;;;5069598;28;20493;-73
2023/01/13 10:00:23;;;;;;;7.22;4.03;;;17.50;99.90;;;;;;5069818;28;20041;-73
2023/01/13 10:03:17;;;;;;;8.48;4.45;;;17.60;99.90;;;;;;5068621;28;20049;-73
2023/01/13 10:06:03;;;;;;;9.57;6.47;;;17.60;99.90;;;;;;5051700;28;20577;-73
2023/01/13 10:08:39;;;;;;;8.98;5.57;;;17.50;99.90;;;;;;5068594;28;20079;-73
2023/01/13 10:14:34;;;;;;;7.60;3.97;;;17.40;99.90;;;;;;5069699;28;20087;-73
2023/01/13 10:17:19;;;;;;;7.90;5.05;;;17.50;99.90;;;;;;5069475;28;20493;-73
2023/01/13 10:20:20;;;;;;;6.20;3.83;;;17.80;99.90;;;;;;5068882;28;20053;-72
2023/01/13 10:22:59;;;;;;;6.88;3.88;;;17.90;99.90;;;;;;5070045;28;20490;-72
2023/01/13 10:25:50;;;;;;;10.00;6.03;;;17.90;99.90;;;;;;5069821;28;20132;-72
2023/01/13 10:28:18;;;;;;;9.18;5.18;;;18.00;99.90;;;;;;5060329;28;20123;-74
2023/01/13 10:30:46;;;;;;;8.77;5.65;;;18.10;99.90;;;;;;5035174;28;20049;-73
2023/01/13 10:33:27;;;;;;;7.63;4.53;;;18.10;99.90;;;;;;5068567;28;20110;-72
2023/01/13 10:36:00;;;;;;;6.38;4.25;;;18.10;99.90;;;;;;5035614;28;20135;-73
2023/01/13 10:38:39;;;;;;;6.35;4.15;;;18.10;99.90;;;;;;5070003;28;20098;-72
2023/01/13 10:41:16;;;;;;;8.32;5.53;;;18.10;99.90;;;;;;5069675;28;20040;-73
2023/01/13 10:43:56;;;;;;;10.80;8.80;;;18.10;99.90;;;;;;5068472;28;20075;-72
2023/01/13 10:46:24;;;;;;;11.10;7.90;;;18.00;99.90;;;;;;5047973;28;20045;-72
2023/01/13 10:49:02;;;;;;;11.25;6.30;;;18.00;99.90;;;;;;5064377;28;20044;-72
2023/01/13 10:51:42;;;;;;;7.43;5.35;;;18.00;99.90;;;;;;5069566;28;20473;-72
2023/01/13 10:54:21;;;;;;;9.10;6.40;;;18.00;99.90;;;;;;5068481;28;20052;-73
2023/01/13 10:57:09;;;;;;;7.80;5.80;;;18.00;99.90;;;;;;5069808;28;20193;-73
2023/01/13 10:59:36;;;;;;;6.68;4.13;;;18.10;99.90;;;;;;5067287;28;20250;-72
2023/01/13 11:02:07;;;;;;;10.30;6.00;;;18.10;99.90;;;;;;5069275;28;20044;-72
2023/01/13 11:05:01;;;;;;;14.30;10.95;;;18.20;99.90;;;;;;5053472;28;20036;-72
2023/01/13 11:07:39;;;;;;;8.77;6.63;;;18.20;99.90;;;;;;5068488;28;20491;-72
2023/01/13 11:10:16;;;;;;;7.10;4.75;;;18.30;99.90;;;;;;5069563;28;20044;-72
2023/01/13 11:13:11;;;;;;;7.32;5.32;;;18.30;99.90;;;;;;5068073;28;20045;-73
2023/01/13 11:15:54;;;;;;;7.07;4.55;;;18.20;99.90;;;;;;5068854;28;20056;-72
2023/01/13 11:18:35;;;;;;;6.70;4.40;;;18.20;99.90;;;;;;5065749;28;20433;-72
2023/01/13 11:21:11;;;;;;;6.40;3.90;;;18.20;99.90;;;;;;5067802;28;20389;-72
2023/01/13 11:23:49;;;;;;;7.90;3.83;;;18.30;99.90;;;;;;5051276;28;20068;-72
2023/01/13 11:26:37;;;;;;;21.02;4.70;;;18.30;99.90;;;;;;5072421;28;20049;-71
2023/01/13 11:29:16;;;;;;;8.85;5.53;;;18.10;99.90;;;;;;5051510;28;20694;-73
2023/01/13 11:31:51;;;;;;;6.07;4.03;;;18.00;99.90;;;;;;5052498;28;20115;-73
2023/01/13 11:34:24;;;;;;;5.03;3.20;;;17.90;99.90;;;;;;5051555;28;20045;-72
2023/01/13 11:36:55;;;;;;;4.95;3.28;;;17.90;99.90;;;;;;5070637;28;20051;-74
2023/01/13 11:39:28;;;;;;;6.93;4.07;;;18.00;99.90;;;;;;5053986;28;20095;-72
2023/01/13 11:45:11;;;;;;;4.85;2.60;;;18.10;99.90;;;;;;5070997;28;20048;-73
2023/01/13 11:47:38;;;;;;;5.10;3.30;;;17.90;99.90;;;;;;5054099;28;20483;-72
2023/01/13 11:50:16;;;;;;;4.63;3.25;;;17.80;99.90;;;;;;5072398;28;20048;-72
2023/01/13 11:52:55;;;;;;;6.22;4.32;;;17.50;99.90;;;;;;5072185;28;20184;-72
2023/01/13 11:55:33;;;;;;;5.75;3.35;;;17.40;99.90;;;;;;5054177;28;20065;-72
2023/01/13 11:58:20;;;;;;;4.10;2.88;;;17.20;99.90;;;;;;5072038;28;20513;-73
2023/01/13 12:01:09;;;;;;;5.57;3.72;;;17.00;99.90;;;;;;5070967;28;20590;-72
2023/01/13 12:03:47;;;;;;;6.03;3.58;;;16.90;99.90;;;;;;5070700;28;20078;-72
2023/01/13 12:06:37;;;;;;;4.85;3.30;;;16.80;99.90;;;;;;5071900;28;20102;-72
2023/01/13 12:09:26;;;;;;;6.22;3.70;;;16.70;99.90;;;;;;5069750;28;20054;-74
2023/01/13 12:12:31;;;;;;;5.07;3.08;;;16.80;99.90;;;;;;5037339;28;20048;-72
2023/01/13 12:15:18;;;;;;;5.00;2.83;;;17.00;99.90;;;;;;5064943;28;20056;-71
2023/01/13 12:17:45;;;;;;;5.32;2.63;;;17.20;99.90;;;;;;5071341;28;20459;-72
2023/01/13 12:20:22;;;;;;;5.90;2.88;;;17.20;99.90;;;;;;5071559;28;20098;-72
2023/01/13 12:22:53;;;;;;;5.38;2.90;;;17.20;99.90;;;;;;5053903;28;20063;-71
2023/01/13 12:25:31;;;;;;;3.63;2.92;;;17.30;99.90;;;;;;5069830;28;20479;-72
2023/01/13 12:28:23;;;;;;;6.05;2.63;;;17.30;99.90;;;;;;5071433;28;20458;-72
2023/01/13 12:30:58;;;;;;;6.00;3.30;;;17.30;99.90;;;;;;5070274;28;20517;-72
2023/01/13 12:33:53;;;;;;;8.25;4.28;;;17.30;99.90;;;;;;5071106;28;20449;-72
2023/01/13 12:36:57;;;;;;;6.00;3.70;;;17.30;99.90;;;;;;5068403;28;20056;-73
2023/01/13 12:39:43;;;;;;;5.18;3.55;;;17.20;99.90;;;;;;5069861;28;20154;-72
2023/01/13 12:45:11;;;;;;;6.90;4.00;;;17.10;99.90;;;;;;5070673;28;20369;-72
2023/01/13 12:47:44;;;;;;;7.20;4.15;;;17.10;99.90;;;;;;5069448;28;20090;-72
2023/01/13 12:50:21;;;;;;;5.80;4.03;;;17.10;99.90;;;;;;5071057;28;20056;-75
2023/01/13 12:52:53;;;;;;;7.22;5.13;;;16.90;99.90;;;;;;5069673;28;20045;-73
2023/01/13 12:55:26;;;;;;;5.07;3.28;;;16.80;99.90;;;;;;5052786;28;20048;-72
2023/01/13 12:57:57;;;;;;;6.80;4.40;;;16.60;99.90;;;;;;5070828;28;20045;-74
2023/01/13 13:00:39;;;;;;;4.90;3.63;;;16.40;99.90;;;;;;5069253;28;20055;-73
2023/01/13 13:03:12;;;;;;;5.47;3.17;;;16.20;99.90;;;;;;5069514;28;20525;-73
2023/01/13 13:05:50;;;;;;;5.13;3.28;;;16.10;99.90;;;;;;5069352;28;20041;-72
2023/01/13 13:08:20;;;;;;;8.05;4.20;;;16.20;99.90;;;;;;5069418;28;20055;-73
2023/01/13 13:14:37;;;;;;;8.65;4.65;;;16.40;99.90;;;;;;5070896;28;20429;-72
2023/01/13 13:17:17;;;;;;;4.28;3.80;;;16.50;99.90;;;;;;5067592;28;20049;-72
2023/01/13 13:19:47;;;;;;;7.25;3.72;;;16.50;99.90;;;;;;5036325;28;20045;-72
2023/01/13 13:22:17;;;;;;;5.00;2.78;;;16.40;99.90;;;;;;5070249;28;20094;-72
2023/01/13 13:24:48;;;;;;;5.75;3.40;;;16.30;99.90;;;;;;5069172;28;20395;-73
2023/01/13 13:27:16;;;;;;;5.18;3.60;;;16.30;99.90;;;;;;5052550;28;20387;-73
2023/01/13 13:29:55;;;;;;;6.97;4.00;;;16.20;99.90;;;;;;5068823;28;20032;-72
2023/01/13 13:32:38;;;;;;;5.65;3.38;;;16.20;99.90;;;;;;5069211;28;20079;-72
2023/01/13 13:35:18;;;;;;;6.40;3.67;;;16.10;99.90;;;;;;5052832;28;20041;-72
2023/01/13 13:46:46;;;;;;;5.00;2.75;;;15.70;99.90;;;;;;5068586;28;20044;-71
2023/01/13 13:49:33;;;;;;;7.60;4.25;;;15.80;99.90;;;;;;5070103;28;20066;-72
2023/01/13 13:52:13;;;;;;;6.45;4.85;;;15.90;99.90;;;;;;5052497;28;20053;-74
2023/01/13 13:54:46;;;;;;;9.15;4.47;;;16.00;99.90;;;;;;5068877;28;20048;-72
2023/01/13 13:57:38;;;;;;;6.70;4.25;;;16.00;99.90;;;;;;5068825;28;20048;-73
2023/01/13 14:00:33;;;;;;;8.43;4.50;;;15.70;99.90;;;;;;5070411;28;20240;-72
2023/01/13 14:03:18;;;;;;;8.15;4.50;;;15.70;99.90;;;;;;5035796;28;20045;-71
2023/01/13 14:06:21;;;;;;;5.80;3.92;;;15.60;99.90;;;;;;5052469;28;20763;-71
2023/01/13 14:08:49;;;;;;;5.95;3.58;;;15.70;99.90;;;;;;5068378;28;20076;-72
2023/01/13 14:11:52;;;;;;;5.38;3.45;;;15.60;99.90;;;;;;5068608;28;20063;-72
2023/01/13 14:14:20;;;;;;;5.45;2.92;;;15.60;99.90;;;;;;5069900;28;20080;-71
2023/01/13 14:16:53;;;;;;;5.55;3.78;;;15.50;99.90;;;;;;5069627;28;20048;-71
2023/01/13 14:19:32;;;;;;;4.95;3.97;;;15.50;99.90;;;;;;5068266;28;20459;-72
2023/01/13 14:22:01;;;;;;;6.65;4.03;;;15.40;99.90;;;;;;5070149;28;20060;-72